Time;durP1;ratioP1;P1;durP2;ratioP2;P2;SDS_P1;SDS_P2;PMS_P1;PMS_P2;Temp;Humidity;BMP_temperature;BMP_pressure;BME280_temperature;BME280_humidity;BME280_pressure;Samples;Min_cycle;Max_cycle;Signal;HPM_P1;HPM_P2
2021/05/09 00:02:30;;;;;;;8.60;5.03;;;14.90;99.90;;;;;;5025473;28;20724;-77
2021/05/09 00:05:15;;;;;;;8.57;4.40;;;14.80;99.90;;;;;;5020485;28;20287;-78
2021/05/09 00:08:00;;;;;;;9.83;5.40;;;14.80;99.90;;;;;;5016031;28;20287;-77
2021/05/09 00:10:45;;;;;;;8.43;4.77;;;14.80;99.90;;;;;;5015063;28;20263;-77
2021/05/09 00:13:30;;;;;;;7.20;4.50;;;14.70;99.90;;;;;;5028319;28;20206;-77
2021/05/09 00:16:15;;;;;;;8.37;4.37;;;14.70;99.90;;;;;;5019456;28;20213;-78
2021/05/09 00:19:00;;;;;;;6.50;4.73;;;14.70;99.90;;;;;;5003786;28;20646;-77
2021/05/09 00:21:44;;;;;;;9.27;4.53;;;14.70;99.90;;;;;;5019744;28;20213;-78
2021/05/09 00:24:29;;;;;;;7.90;5.03;;;14.60;99.90;;;;;;5028622;28;20337;-77
2021/05/09 00:27:13;;;;;;;8.57;5.43;;;14.60;99.90;;;;;;5010719;28;20262;-77
2021/05/09 00:29:58;;;;;;;7.97;4.70;;;14.60;99.90;;;;;;5001632;28;20238;-78
2021/05/09 00:32:44;;;;;;;8.77;4.67;;;14.50;99.90;;;;;;5013786;28;20259;-77
2021/05/09 00:35:29;;;;;;;9.33;4.37;;;14.50;99.90;;;;;;5013976;28;20227;-77
2021/05/09 00:38:16;;;;;;;5.57;4.30;;;14.50;99.90;;;;;;5000682;28;20214;-78
2021/05/09 00:41:01;;;;;;;6.77;4.40;;;14.50;99.90;;;;;;5014209;28;20234;-78
2021/05/09 00:43:46;;;;;;;7.10;4.67;;;14.50;99.90;;;;;;5005090;28;20299;-77
2021/05/09 00:46:31;;;;;;;9.00;5.23;;;14.50;99.90;;;;;;5015620;28;20210;-77
2021/05/09 00:49:17;;;;;;;8.17;4.73;;;14.50;99.90;;;;;;5013123;28;20273;-78
2021/05/09 00:52:02;;;;;;;7.40;4.30;;;14.40;99.90;;;;;;5003283;28;20264;-77
2021/05/09 00:54:51;;;;;;;7.00;4.90;;;14.40;99.90;;;;;;5015899;28;20211;-77
2021/05/09 00:57:37;;;;;;;8.03;4.67;;;14.40;99.90;;;;;;5018583;28;20274;-77
2021/05/09 01:00:22;;;;;;;6.80;4.47;;;14.40;99.90;;;;;;5014157;28;20301;-77
2021/05/09 01:03:07;;;;;;;8.77;5.03;;;14.30;99.90;;;;;;5008050;28;20265;-78
2021/05/09 01:05:54;;;;;;;6.83;4.83;;;14.40;99.90;;;;;;5006342;28;20233;-78
2021/05/09 01:08:39;;;;;;;10.53;5.03;;;14.40;99.90;;;;;;5014425;28;20217;-77
2021/05/09 01:11:24;;;;;;;10.07;5.57;;;14.40;99.90;;;;;;5013961;28;20226;-77
2021/05/09 01:14:09;;;;;;;7.93;4.87;;;14.30;99.90;;;;;;5015534;28;20205;-78
2021/05/09 01:16:54;;;;;;;7.90;4.67;;;14.30;99.90;;;;;;5016082;28;20212;-77
2021/05/09 01:19:41;;;;;;;10.70;5.00;;;14.30;99.90;;;;;;5027070;28;20225;-78
2021/05/09 01:22:27;;;;;;;11.27;5.00;;;14.30;99.90;;;;;;5028950;28;20189;-77
2021/05/09 01:25:12;;;;;;;8.43;4.70;;;14.20;99.90;;;;;;5044781;28;20201;-78
2021/05/09 01:27:58;;;;;;;9.50;4.93;;;14.20;99.90;;;;;;5033409;28;20587;-78
2021/05/09 01:30:43;;;;;;;8.23;4.97;;;14.20;99.90;;;;;;5025151;28;20224;-78
2021/05/09 01:33:28;;;;;;;8.40;5.30;;;14.20;99.90;;;;;;5016312;28;20205;-78
2021/05/09 01:36:12;;;;;;;8.83;5.20;;;14.20;99.90;;;;;;5014586;28;20309;-78
2021/05/09 01:38:58;;;;;;;9.20;5.20;;;14.10;99.90;;;;;;5014435;28;20830;-78
2021/05/09 01:41:43;;;;;;;8.47;4.83;;;14.10;99.90;;;;;;5012751;28;20209;-77
2021/05/09 01:44:28;;;;;;;7.90;5.07;;;14.10;99.90;;;;;;5036172;28;20240;-78
2021/05/09 01:47:12;;;;;;;9.73;4.90;;;14.10;99.90;;;;;;5005154;28;20204;-77
2021/05/09 01:49:57;;;;;;;10.60;5.30;;;14.10;99.90;;;;;;5017867;28;20228;-77
2021/05/09 01:52:43;;;;;;;9.33;5.60;;;14.00;99.90;;;;;;5012214;28;20224;-77
2021/05/09 01:55:29;;;;;;;9.10;5.00;;;14.00;99.90;;;;;;5015114;28;20205;-77
2021/05/09 01:58:14;;;;;;;11.43;5.27;;;13.90;99.90;;;;;;5017111;28;20267;-78
2021/05/09 02:00:59;;;;;;;9.67;5.33;;;14.00;99.90;;;;;;5015538;28;20818;-77
2021/05/09 02:03:44;;;;;;;11.00;4.87;;;13.90;99.90;;;;;;5016016;28;20200;-77
2021/05/09 02:06:28;;;;;;;9.77;5.10;;;13.90;99.90;;;;;;5025184;28;20571;-78
2021/05/09 02:09:13;;;;;;;7.57;4.43;;;13.90;99.90;;;;;;5030937;28;20247;-77
2021/05/09 02:11:59;;;;;;;6.30;4.40;;;13.90;99.90;;;;;;5030206;28;20207;-77
2021/05/09 02:14:44;;;;;;;7.10;4.40;;;13.90;99.90;;;;;;5020653;28;20208;-77
2021/05/09 02:17:28;;;;;;;7.67;4.57;;;13.90;99.90;;;;;;5003122;28;20286;-77
2021/05/09 02:20:14;;;;;;;7.83;4.63;;;13.80;99.90;;;;;;4995696;28;20710;-77
2021/05/09 02:22:59;;;;;;;6.13;4.77;;;13.80;99.90;;;;;;4999780;28;20247;-78
2021/05/09 02:25:44;;;;;;;6.00;4.70;;;13.80;99.90;;;;;;4995978;28;20579;-77
2021/05/09 02:28:29;;;;;;;8.43;5.03;;;13.80;99.90;;;;;;5009097;28;20265;-77
2021/05/09 02:31:14;;;;;;;6.33;4.90;;;13.80;99.90;;;;;;5012941;28;20232;-77
2021/05/09 02:33:59;;;;;;;8.53;3.97;;;13.80;99.90;;;;;;4999176;28;20255;-77
2021/05/09 02:36:44;;;;;;;6.53;4.50;;;13.80;99.90;;;;;;5012012;28;20213;-78
2021/05/09 02:39:29;;;;;;;8.77;5.23;;;13.80;99.90;;;;;;5013060;28;20644;-77
2021/05/09 02:42:14;;;;;;;8.07;4.80;;;13.80;99.90;;;;;;5010273;28;20239;-78
2021/05/09 02:44:59;;;;;;;7.33;4.27;;;13.80;99.90;;;;;;5005549;28;20661;-78
2021/05/09 02:47:45;;;;;;;6.70;4.17;;;13.80;99.90;;;;;;5012453;28;20264;-78
2021/05/09 02:50:29;;;;;;;7.40;4.77;;;13.70;99.90;;;;;;5002169;28;20229;-78
2021/05/09 02:53:14;;;;;;;7.67;4.50;;;13.80;99.90;;;;;;5005075;28;20601;-78
2021/05/09 02:55:59;;;;;;;8.67;4.37;;;13.80;99.90;;;;;;5014191;28;20582;-78
2021/05/09 02:58:43;;;;;;;8.60;4.60;;;13.80;99.90;;;;;;5012991;28;20215;-78
2021/05/09 03:01:29;;;;;;;8.23;4.90;;;13.80;99.90;;;;;;4999438;28;20205;-78
2021/05/09 03:04:13;;;;;;;8.90;5.07;;;13.70;99.90;;;;;;5013353;28;20206;-78
2021/05/09 03:06:58;;;;;;;7.33;4.27;;;13.70;99.90;;;;;;5007162;28;20213;-78
2021/05/09 03:09:43;;;;;;;8.83;4.97;;;13.70;99.90;;;;;;5008373;28;20235;-77
2021/05/09 03:12:27;;;;;;;9.10;5.80;;;13.70;99.90;;;;;;5020569;28;20212;-78
2021/05/09 03:15:13;;;;;;;9.33;4.50;;;13.70;99.90;;;;;;5023127;28;20206;-77
2021/05/09 03:17:59;;;;;;;7.43;4.43;;;13.70;99.90;;;;;;5025165;28;20266;-77
2021/05/09 03:20:44;;;;;;;8.03;4.60;;;13.70;99.90;;;;;;5021440;28;20348;-77
2021/05/09 03:23:28;;;;;;;10.07;5.13;;;13.70;99.90;;;;;;5010568;28;20784;-77
2021/05/09 03:26:13;;;;;;;6.07;4.20;;;13.70;99.90;;;;;;4995224;28;20212;-77
2021/05/09 03:28:58;;;;;;;8.23;5.10;;;13.70;99.90;;;;;;4993420;28;20252;-77
2021/05/09 03:31:43;;;;;;;11.33;5.70;;;13.70;99.90;;;;;;5007167;28;20244;-78
2021/05/09 03:34:28;;;;;;;8.17;4.50;;;13.70;99.90;;;;;;5001251;28;20221;-78
2021/05/09 03:37:13;;;;;;;8.47;4.77;;;13.80;99.90;;;;;;5000984;28;20213;-78
2021/05/09 03:39:58;;;;;;;10.37;4.17;;;13.80;99.90;;;;;;5010190;28;20224;-78
2021/05/09 03:42:43;;;;;;;7.60;4.43;;;13.70;99.90;;;;;;4992706;28;20213;-78
2021/05/09 03:45:28;;;;;;;11.50;5.27;;;13.80;99.90;;;;;;5000908;28;20207;-78
2021/05/09 03:48:12;;;;;;;8.50;4.63;;;13.80;99.90;;;;;;5000683;28;20209;-77
2021/05/09 03:50:58;;;;;;;6.63;4.40;;;13.80;99.90;;;;;;4994879;28;20274;-78
2021/05/09 03:53:42;;;;;;;10.13;5.37;;;13.80;99.90;;;;;;5011350;28;20237;-78
2021/05/09 03:56:27;;;;;;;6.40;4.70;;;13.80;99.90;;;;;;5011011;28;20209;-78
2021/05/09 03:59:12;;;;;;;8.47;4.63;;;13.80;99.90;;;;;;5007193;28;20283;-78
2021/05/09 04:01:56;;;;;;;9.93;5.70;;;13.80;99.90;;;;;;5017309;28;20205;-78
2021/05/09 04:04:41;;;;;;;5.43;4.50;;;13.80;99.90;;;;;;5014062;28;21043;-77
2021/05/09 04:07:27;;;;;;;7.23;4.67;;;13.80;99.90;;;;;;5022530;28;20303;-78
2021/05/09 04:10:12;;;;;;;6.70;4.20;;;13.80;99.90;;;;;;5021447;28;20231;-77
2021/05/09 04:12:56;;;;;;;8.67;4.20;;;13.80;99.90;;;;;;5022248;28;20319;-77
2021/05/09 04:15:41;;;;;;;7.13;4.20;;;13.80;99.90;;;;;;5014488;28;20212;-78
2021/05/09 04:18:26;;;;;;;7.30;4.37;;;13.90;99.90;;;;;;5021909;28;20283;-77
2021/05/09 04:21:11;;;;;;;5.17;3.93;;;13.90;99.90;;;;;;5019289;28;20242;-77
2021/05/09 04:23:57;;;;;;;4.83;3.60;;;13.90;99.90;;;;;;5007885;28;20329;-78
2021/05/09 04:26:41;;;;;;;5.47;3.97;;;13.90;99.90;;;;;;5006477;28;20222;-77
2021/05/09 04:29:26;;;;;;;5.23;3.70;;;14.00;99.90;;;;;;5010288;28;20329;-77
2021/05/09 04:32:11;;;;;;;7.30;3.13;;;14.00;99.90;;;;;;5021831;28;20287;-77
2021/05/09 04:34:55;;;;;;;7.50;3.57;;;14.00;99.90;;;;;;5029804;28;20669;-78
2021/05/09 04:37:40;;;;;;;8.37;3.80;;;14.00;99.90;;;;;;5038840;28;20192;-78
2021/05/09 04:40:27;;;;;;;6.20;3.87;;;14.10;99.90;;;;;;5056181;28;20204;-78
2021/05/09 04:43:13;;;;;;;5.43;3.43;;;14.10;99.90;;;;;;5013516;28;20206;-78
2021/05/09 04:45:58;;;;;;;7.03;3.63;;;14.10;99.90;;;;;;5017539;28;20198;-78
2021/05/09 04:48:43;;;;;;;7.93;3.80;;;14.10;99.90;;;;;;5012295;28;20558;-77
2021/05/09 04:51:28;;;;;;;7.97;3.70;;;14.10;99.90;;;;;;5013669;28;20223;-78
2021/05/09 04:54:13;;;;;;;5.60;3.63;;;14.10;99.90;;;;;;5012638;28;20251;-78
2021/05/09 04:56:58;;;;;;;4.07;3.37;;;14.10;99.90;;;;;;5015307;28;20728;-78
2021/05/09 04:59:43;;;;;;;6.23;3.50;;;14.20;99.90;;;;;;5008447;28;20269;-78
2021/05/09 05:02:27;;;;;;;5.80;3.10;;;14.20;99.90;;;;;;5014402;28;20336;-77
2021/05/09 05:05:13;;;;;;;7.03;3.40;;;14.20;99.90;;;;;;5007006;28;20358;-77
2021/05/09 05:07:58;;;;;;;5.63;3.27;;;14.20;99.90;;;;;;5001226;28;20210;-77
2021/05/09 05:10:43;;;;;;;7.40;3.20;;;14.30;99.90;;;;;;5007709;28;20272;-77
2021/05/09 05:13:31;;;;;;;6.97;3.43;;;14.30;99.90;;;;;;5011369;28;20200;-78
2021/05/09 05:16:16;;;;;;;4.30;3.30;;;14.40;99.90;;;;;;5006994;28;20261;-78
2021/05/09 05:19:00;;;;;;;6.07;2.83;;;14.40;99.90;;;;;;5007833;28;20251;-77
2021/05/09 05:21:45;;;;;;;3.20;2.60;;;14.50;99.90;;;;;;5011523;28;20212;-78
2021/05/09 05:24:30;;;;;;;4.93;2.73;;;14.60;99.90;;;;;;5010457;28;20244;-78
2021/05/09 05:27:15;;;;;;;3.50;3.07;;;14.60;99.90;;;;;;5010217;28;20214;-77
2021/05/09 05:30:01;;;;;;;3.60;2.63;;;14.70;99.90;;;;;;5015242;28;20227;-77
2021/05/09 05:32:47;;;;;;;6.20;2.77;;;14.70;99.90;;;;;;5005529;28;20210;-77
2021/05/09 05:35:33;;;;;;;2.73;2.43;;;14.80;99.90;;;;;;5001015;28;20570;-77
2021/05/09 05:38:18;;;;;;;7.43;2.73;;;15.00;99.90;;;;;;5003995;28;20219;-76
2021/05/09 05:41:03;;;;;;;6.73;2.67;;;15.00;99.90;;;;;;5006927;28;20297;-77
2021/05/09 05:43:48;;;;;;;6.10;2.87;;;15.00;99.90;;;;;;5006857;28;20240;-76
2021/05/09 05:46:34;;;;;;;5.30;2.77;;;15.20;99.90;;;;;;5004133;28;20242;-77
2021/05/09 05:49:19;;;;;;;5.77;2.20;;;15.30;99.90;;;;;;5003611;28;20248;-76
2021/05/09 05:52:04;;;;;;;3.43;2.30;;;15.40;99.90;;;;;;5006852;28;20215;-76
2021/05/09 05:54:48;;;;;;;4.27;2.40;;;15.40;99.90;;;;;;5008173;28;20235;-76
2021/05/09 05:57:33;;;;;;;3.30;2.50;;;15.50;99.90;;;;;;4994992;28;20276;-76
2021/05/09 06:00:19;;;;;;;4.53;2.30;;;15.50;99.90;;;;;;5008898;28;20250;-78
2021/05/09 06:03:06;;;;;;;4.47;2.33;;;15.60;99.90;;;;;;5000727;28;20259;-78
2021/05/09 06:05:52;;;;;;;4.23;2.20;;;15.60;99.90;;;;;;5003073;28;20923;-78
2021/05/09 06:08:37;;;;;;;2.67;2.30;;;15.60;99.90;;;;;;4997587;28;20265;-78
2021/05/09 06:11:22;;;;;;;5.10;2.40;;;15.80;99.90;;;;;;5008533;28;20254;-79
2021/05/09 06:14:07;;;;;;;2.97;2.00;;;15.70;99.90;;;;;;5006488;28;20219;-77
2021/05/09 06:16:52;;;;;;;4.60;1.97;;;15.70;99.90;;;;;;5008564;28;20218;-76
2021/05/09 06:19:37;;;;;;;4.20;2.40;;;15.80;99.90;;;;;;5009602;28;20804;-77
2021/05/09 06:22:22;;;;;;;5.23;2.50;;;15.80;99.90;;;;;;5011535;28;20628;-78
2021/05/09 06:25:08;;;;;;;2.20;2.00;;;15.90;99.90;;;;;;5007495;28;20338;-78
2021/05/09 06:27:53;;;;;;;5.23;2.23;;;15.90;99.90;;;;;;5011980;28;20238;-78
2021/05/09 06:30:38;;;;;;;3.57;2.03;;;15.90;99.90;;;;;;5007185;28;20307;-77
2021/05/09 06:33:22;;;;;;;2.83;2.00;;;15.90;99.90;;;;;;5012010;28;20292;-78
2021/05/09 06:36:08;;;;;;;3.37;2.00;;;15.90;99.90;;;;;;5012631;28;20271;-77
2021/05/09 06:38:53;;;;;;;5.07;2.70;;;16.00;99.90;;;;;;5013058;28;20223;-77
2021/05/09 06:41:38;;;;;;;4.67;2.17;;;16.00;99.90;;;;;;5008634;28;20243;-79
2021/05/09 06:44:25;;;;;;;2.63;2.10;;;16.00;99.90;;;;;;5012227;28;20288;-78
2021/05/09 06:47:10;;;;;;;2.87;1.90;;;16.10;99.90;;;;;;5013817;28;20224;-79
2021/05/09 06:49:55;;;;;;;5.27;2.20;;;16.10;99.90;;;;;;5024895;28;20260;-78
2021/05/09 06:52:43;;;;;;;3.13;2.03;;;16.10;99.90;;;;;;5018740;28;20246;-77
2021/05/09 06:55:29;;;;;;;1.77;1.67;;;16.20;99.90;;;;;;5016410;28;20199;-77
2021/05/09 06:58:14;;;;;;;3.07;1.90;;;16.20;99.90;;;;;;5008482;28;20227;-77
2021/05/09 07:00:59;;;;;;;2.97;1.73;;;16.30;99.90;;;;;;5008002;28;20231;-77
2021/05/09 07:03:44;;;;;;;3.13;1.87;;;16.50;99.90;;;;;;5016923;28;20250;-77
2021/05/09 07:06:29;;;;;;;3.87;1.93;;;16.50;99.90;;;;;;5019449;28;20305;-77
2021/05/09 07:09:14;;;;;;;2.27;1.70;;;16.60;99.90;;;;;;4997435;28;20271;-77
2021/05/09 07:11:59;;;;;;;4.13;2.10;;;16.70;99.90;;;;;;5011745;28;20263;-77
2021/05/09 07:14:44;;;;;;;3.47;2.00;;;16.80;99.90;;;;;;4998988;28;20303;-78
2021/05/09 07:17:28;;;;;;;3.50;2.00;;;16.90;99.90;;;;;;5009925;28;20276;-77
2021/05/09 07:20:13;;;;;;;2.80;2.17;;;16.90;99.90;;;;;;5022344;28;20304;-77
2021/05/09 07:22:58;;;;;;;2.10;1.87;;;17.10;99.90;;;;;;5009592;28;20707;-77
2021/05/09 07:25:44;;;;;;;5.70;2.40;;;17.10;99.90;;;;;;4996698;28;20988;-78
2021/05/09 07:28:29;;;;;;;3.00;2.13;;;17.30;99.90;;;;;;5006993;28;20209;-78
2021/05/09 07:31:13;;;;;;;2.87;2.00;;;17.40;99.90;;;;;;5006667;28;20216;-78
2021/05/09 07:33:58;;;;;;;3.17;2.10;;;17.50;99.90;;;;;;5004341;28;20259;-76
2021/05/09 07:36:47;;;;;;;5.27;2.60;;;17.70;99.90;;;;;;5022269;28;20212;-78
2021/05/09 07:39:32;;;;;;;4.43;2.70;;;17.90;99.90;;;;;;5013282;28;20245;-78
2021/05/09 07:42:18;;;;;;;3.90;2.17;;;18.00;99.90;;;;;;4994977;28;20230;-78
2021/05/09 07:45:03;;;;;;;2.90;2.20;;;18.20;99.90;;;;;;5012912;28;20574;-78
2021/05/09 07:47:48;;;;;;;3.73;1.90;;;18.40;99.90;;;;;;5011308;28;20798;-78
2021/05/09 07:50:32;;;;;;;3.70;2.70;;;18.60;99.90;;;;;;5009717;28;20736;-78
2021/05/09 07:53:18;;;;;;;3.60;2.47;;;18.80;99.90;;;;;;5014228;28;20346;-80
2021/05/09 07:56:03;;;;;;;4.33;2.60;;;19.00;99.90;;;;;;5008690;28;20258;-80
2021/05/09 07:58:49;;;;;;;3.03;2.13;;;19.20;99.90;;;;;;5015542;28;20224;-80
2021/05/09 08:01:34;;;;;;;3.93;2.43;;;19.40;99.90;;;;;;5011533;28;20221;-80
2021/05/09 08:04:18;;;;;;;2.97;2.27;;;19.50;99.90;;;;;;5015281;28;20227;-79
2021/05/09 08:07:03;;;;;;;3.70;2.50;;;19.80;99.90;;;;;;5024513;28;20871;-79
2021/05/09 08:09:48;;;;;;;4.37;2.30;;;19.90;99.90;;;;;;5011669;28;20304;-80
2021/05/09 08:12:32;;;;;;;2.43;2.10;;;20.00;99.90;;;;;;5011556;28;20213;-80
2021/05/09 08:15:19;;;;;;;3.00;2.03;;;20.10;99.90;;;;;;5014454;28;20287;-80
2021/05/09 08:18:05;;;;;;;2.67;2.07;;;20.20;99.90;;;;;;5006831;28;20216;-79
2021/05/09 08:20:50;;;;;;;2.07;1.70;;;20.40;99.90;;;;;;5023102;28;20241;-80
2021/05/09 08:23:37;;;;;;;2.77;1.93;;;20.50;99.90;;;;;;5024298;28;20643;-80
2021/05/09 08:26:22;;;;;;;3.93;1.87;;;20.70;99.90;;;;;;5010852;28;20268;-79
2021/05/09 08:29:07;;;;;;;4.37;2.00;;;20.80;99.90;;;;;;5023969;28;20229;-79
2021/05/09 08:31:53;;;;;;;3.20;2.03;;;21.00;99.90;;;;;;5035169;28;20347;-78
2021/05/09 08:34:37;;;;;;;4.33;2.03;;;21.00;99.90;;;;;;5031881;28;21205;-78
2021/05/09 08:37:22;;;;;;;3.93;2.00;;;21.10;99.90;;;;;;5036994;28;20748;-79
2021/05/09 08:40:09;;;;;;;4.30;1.93;;;21.20;99.90;;;;;;5022883;28;20285;-77
2021/05/09 08:42:54;;;;;;;3.00;2.20;;;21.30;99.90;;;;;;5006253;28;20238;-79
2021/05/09 08:45:39;;;;;;;3.23;2.27;;;21.30;99.90;;;;;;5020545;28;20238;-79
2021/05/09 08:48:26;;;;;;;3.83;2.70;;;21.30;99.90;;;;;;5018411;28;20724;-79
2021/05/09 08:51:11;;;;;;;4.10;2.30;;;21.40;99.90;;;;;;5031767;28;20223;-79
2021/05/09 08:53:57;;;;;;;3.97;2.60;;;21.50;99.90;;;;;;5031090;28;20560;-79
2021/05/09 08:56:41;;;;;;;5.37;2.50;;;21.50;99.90;;;;;;5024167;28;20232;-79
2021/05/09 08:59:26;;;;;;;3.60;2.87;;;21.60;99.90;;;;;;5014765;28;20250;-79
2021/05/09 09:02:13;;;;;;;4.30;2.90;;;21.70;99.90;;;;;;5034735;28;20273;-79
2021/05/09 09:05:00;;;;;;;3.87;2.80;;;21.80;99.90;;;;;;5025786;28;20700;-77
2021/05/09 09:07:46;;;;;;;3.87;2.80;;;21.90;99.90;;;;;;5005824;28;20252;-79
2021/05/09 09:10:34;;;;;;;4.33;2.67;;;21.90;99.90;;;;;;5020784;28;20245;-79
2021/05/09 09:13:21;;;;;;;6.03;3.03;;;22.00;99.90;;;;;;5029466;28;20215;-80
2021/05/09 09:16:07;;;;;;;5.43;2.90;;;22.20;99.90;;;;;;5024458;28;20214;-79
2021/05/09 09:18:53;;;;;;;4.90;2.73;;;22.40;99.90;;;;;;5022705;28;20254;-79
2021/05/09 09:21:40;;;;;;;6.17;2.73;;;22.60;99.90;;;;;;5022653;28;20556;-79
2021/05/09 09:24:25;;;;;;;3.93;2.30;;;22.80;99.90;;;;;;5019608;28;20232;-79
2021/05/09 09:27:10;;;;;;;4.87;2.50;;;22.90;99.90;;;;;;5006890;28;20211;-79
2021/05/09 09:29:59;;;;;;;2.90;2.47;;;23.10;99.90;;;;;;5004843;28;20257;-77
2021/05/09 09:33:13;;;;;;;3.83;2.40;;;23.40;99.90;;;;;;5026634;28;20570;-78
2021/05/09 09:35:59;;;;;;;5.87;2.80;;;23.80;99.90;;;;;;5008272;28;20235;-78
2021/05/09 09:38:50;;;;;;;4.53;3.00;;;24.30;99.90;;;;;;5019358;28;20780;-77
2021/05/09 09:41:35;;;;;;;4.93;2.80;;;24.80;99.90;;;;;;5026439;28;20288;-78
2021/05/09 09:44:20;;;;;;;5.87;2.67;;;25.30;99.90;;;;;;5031487;28;20220;-78
2021/05/09 09:47:04;;;;;;;3.57;2.00;;;25.70;99.90;;;;;;5026028;28;20223;-78
2021/05/09 09:49:49;;;;;;;2.80;2.30;;;26.10;99.90;;;;;;5016502;28;20230;-78
2021/05/09 09:52:34;;;;;;;4.50;2.17;;;26.30;99.90;;;;;;5022228;28;20206;-78
2021/05/09 09:55:20;;;;;;;2.50;2.30;;;26.60;99.90;;;;;;5029919;28;21049;-78
2021/05/09 09:58:05;;;;;;;4.55;2.35;;;26.90;99.60;;;;;;5029312;28;20282;-78
2021/05/09 10:00:50;;;;;;;3.72;2.33;;;27.20;98.30;;;;;;5008752;28;20246;-79
2021/05/09 10:03:35;;;;;;;2.70;2.17;;;27.60;97.50;;;;;;5026175;28;20275;-79
2021/05/09 10:06:21;;;;;;;3.53;2.30;;;28.00;97.70;;;;;;5019955;28;20256;-79
2021/05/09 10:09:08;;;;;;;3.88;2.55;;;28.30;95.40;;;;;;5013642;28;20588;-79
2021/05/09 10:11:54;;;;;;;4.88;2.00;;;28.70;94.20;;;;;;5028756;28;20316;-79
2021/05/09 10:14:40;;;;;;;4.90;2.85;;;29.00;93.40;;;;;;5024432;28;20226;-79
2021/05/09 10:17:26;;;;;;;4.22;2.90;;;29.30;91.90;;;;;;5017076;28;20212;-79
2021/05/09 10:20:12;;;;;;;3.58;2.40;;;29.60;90.50;;;;;;5029454;28;20239;-78
2021/05/09 10:23:04;;;;;;;3.63;2.47;;;29.90;89.50;;;;;;5007723;28;20630;-79
2021/05/09 10:25:50;;;;;;;3.03;2.40;;;30.20;88.60;;;;;;5012912;28;20214;-79
2021/05/09 10:28:40;;;;;;;5.07;2.67;;;30.50;85.00;;;;;;5000303;28;20303;-79
2021/05/09 10:31:27;;;;;;;5.68;2.63;;;30.90;83.50;;;;;;5011049;28;20631;-79
2021/05/09 10:34:12;;;;;;;5.05;3.00;;;31.20;82.00;;;;;;5025391;28;20230;-78
2021/05/09 10:36:57;;;;;;;5.03;3.05;;;31.50;77.70;;;;;;5024137;28;20195;-78
2021/05/09 10:40:19;;;;;;;5.47;2.40;;;31.70;76.50;;;;;;5001231;28;20237;-79
2021/05/09 10:43:39;;;;;;;7.18;2.50;;;31.80;78.40;;;;;;5008324;28;20235;-78
2021/05/09 10:46:24;;;;;;;3.65;2.45;;;31.50;79.00;;;;;;5010338;28;20204;-78
2021/05/09 10:49:09;;;;;;;5.57;2.20;;;31.30;75.80;;;;;;4995450;28;20262;-78
2021/05/09 10:51:54;;;;;;;2.05;1.88;;;31.10;77.60;;;;;;5009558;28;20975;-77
2021/05/09 10:54:43;;;;;;;4.00;2.58;;;30.80;77.00;;;;;;5007464;28;20699;-77
2021/05/09 10:57:44;;;;;;;9.90;2.50;;;30.50;75.70;;;;;;5003080;28;20204;-77
2021/05/09 11:01:08;;;;;;;5.60;2.15;;;30.20;75.90;;;;;;5015473;28;20277;-77
2021/05/09 11:03:55;;;;;;;2.58;2.30;;;29.80;77.40;;;;;;5019109;28;20614;-78
2021/05/09 11:06:50;;;;;;;3.95;2.05;;;29.40;77.40;;;;;;5023652;28;20682;-77
2021/05/09 11:09:42;;;;;;;4.47;2.13;;;28.80;79.00;;;;;;5011329;28;20691;-77
2021/05/09 11:13:02;;;;;;;3.80;2.35;;;28.70;78.70;;;;;;5021276;28;20218;-77
2021/05/09 11:16:19;;;;;;;4.47;2.30;;;28.30;80.70;;;;;;5022438;28;20611;-77
2021/05/09 11:19:05;;;;;;;3.23;2.10;;;27.80;83.20;;;;;;5000648;28;20556;-77
2021/05/09 11:21:53;;;;;;;2.70;2.13;;;27.40;84.50;;;;;;5022129;28;20269;-77
2021/05/09 11:24:40;;;;;;;10.50;2.80;;;27.10;86.00;;;;;;5015583;28;20236;-77
2021/05/09 11:27:27;;;;;;;4.30;2.73;;;26.70;87.00;;;;;;5009201;28;20214;-77
2021/05/09 11:30:13;;;;;;;4.53;2.70;;;26.40;90.40;;;;;;4991690;28;20298;-77
2021/05/09 11:32:58;;;;;;;4.07;2.30;;;26.10;92.40;;;;;;5017260;28;20282;-77
2021/05/09 11:35:43;;;;;;;5.80;2.57;;;25.80;92.70;;;;;;5020844;28;20283;-77
2021/05/09 11:38:28;;;;;;;4.33;2.30;;;25.60;93.60;;;;;;5013724;28;20217;-77
2021/05/09 11:41:13;;;;;;;5.37;2.90;;;25.30;93.10;;;;;;5025588;28;20776;-77
2021/05/09 11:44:02;;;;;;;4.70;2.73;;;25.10;93.20;;;;;;5016220;28;20216;-77
2021/05/09 11:46:47;;;;;;;7.70;2.70;;;25.10;94.30;;;;;;5023004;28;20694;-76
2021/05/09 11:49:34;;;;;;;4.27;2.50;;;25.10;94.30;;;;;;5022132;28;20232;-76
2021/05/09 11:52:20;;;;;;;5.77;2.43;;;25.20;93.30;;;;;;5002345;28;20704;-77
2021/05/09 11:55:07;;;;;;;4.17;2.53;;;25.40;93.30;;;;;;5023577;28;20283;-77
2021/05/09 11:57:52;;;;;;;5.27;2.43;;;25.50;92.90;;;;;;5005961;28;20205;-77
2021/05/09 12:00:42;;;;;;;5.30;2.83;;;25.60;93.20;;;;;;5023693;28;20345;-77
2021/05/09 12:03:27;;;;;;;5.17;2.63;;;25.60;92.80;;;;;;5019815;28;20572;-78
2021/05/09 12:06:13;;;;;;;4.80;2.80;;;25.60;93.20;;;;;;5006339;28;20282;-78
2021/05/09 12:08:58;;;;;;;4.10;2.70;;;25.60;93.60;;;;;;5009210;28;20223;-78
2021/05/09 12:11:43;;;;;;;5.73;2.80;;;25.50;93.30;;;;;;5006451;28;20206;-78
2021/05/09 12:14:29;;;;;;;5.67;2.50;;;25.50;93.70;;;;;;5007056;28;20570;-77
2021/05/09 12:17:21;;;;;;;4.33;3.17;;;25.50;94.20;;;;;;5009673;28;20206;-78
2021/05/09 12:20:07;;;;;;;6.53;2.60;;;25.50;93.90;;;;;;5007525;28;20378;-77
2021/05/09 12:22:53;;;;;;;6.67;3.07;;;25.50;94.70;;;;;;5013713;28;20633;-77
2021/05/09 12:25:41;;;;;;;6.67;3.00;;;25.50;94.60;;;;;;5018652;28;20272;-77
2021/05/09 12:28:29;;;;;;;4.27;3.00;;;25.60;94.80;;;;;;5001430;28;20216;-77
2021/05/09 12:31:43;;;;;;;5.50;2.97;;;25.70;94.70;;;;;;5008430;28;20267;-77
2021/05/09 12:34:28;;;;;;;4.50;2.40;;;25.70;94.20;;;;;;5006185;28;20232;-78
2021/05/09 12:37:12;;;;;;;3.87;2.73;;;25.80;93.80;;;;;;5020917;28;20641;-78
2021/05/09 12:40:19;;;;;;;5.13;2.70;;;25.90;93.00;;;;;;5009483;28;20223;-78
2021/05/09 12:43:06;;;;;;;3.97;2.30;;;25.90;92.60;;;;;;5001583;28;20257;-77
2021/05/09 12:45:52;;;;;;;3.17;2.23;;;25.90;93.30;;;;;;5003270;28;20210;-77
2021/05/09 12:48:37;;;;;;;5.63;2.77;;;25.90;92.70;;;;;;5014985;28;20246;-77
2021/05/09 12:51:22;;;;;;;3.50;2.70;;;25.90;91.90;;;;;;5012568;28;20211;-77
2021/05/09 12:54:07;;;;;;;4.23;2.20;;;25.80;91.60;;;;;;5011000;28;20210;-78
2021/05/09 12:56:52;;;;;;;3.37;2.23;;;25.70;92.00;;;;;;5009277;28;20212;-79
2021/05/09 12:59:45;;;;;;;4.93;2.77;;;25.60;92.40;;;;;;5009058;28;20304;-78
2021/05/09 13:02:42;;;;;;;4.10;2.90;;;25.60;92.70;;;;;;5010613;28;20211;-78
2021/05/09 13:05:28;;;;;;;3.73;2.20;;;25.50;93.00;;;;;;5008573;28;20793;-77
2021/05/09 13:08:15;;;;;;;3.27;2.37;;;25.40;94.20;;;;;;5016185;28;20705;-78
2021/05/09 13:45:46;;;;;;;;;;;;;;;;;;;;;
2021/05/09 13:57:59;;;;;;;3.42;2.25;;;28.90;90.10;;;;;;4776633;29;20227;-78
2021/05/09 14:01:40;;;;;;;2.55;2.08;;;29.30;87.20;;;;;;4852163;29;20263;-77
2021/05/09 14:45:41;;;;;;;3.95;2.20;;;32.60;66.10;;;;;;4766381;29;20252;-78
2021/05/09 14:48:26;;;;;;;3.22;2.17;;;32.60;65.70;;;;;;4840857;29;21122;-77
2021/05/09 14:51:10;;;;;;;7.05;2.30;;;32.60;66.60;;;;;;4955104;28;20280;-78
2021/05/09 14:53:55;;;;;;;11.82;10.80;;;32.60;64.90;;;;;;4979676;28;20212;-78
2021/05/09 14:56:40;;;;;;;29.88;27.23;;;32.70;64.20;;;;;;4970496;28;20262;-78
2021/05/09 14:59:27;;;;;;;15.95;14.32;;;32.80;63.90;;;;;;4968893;28;20298;-78
2021/05/09 15:02:15;;;;;;;5.43;3.63;;;32.90;63.60;;;;;;4968117;28;21222;-78
2021/05/09 15:04:59;;;;;;;4.25;3.55;;;32.90;64.30;;;;;;4971921;28;20285;-77
2021/05/09 15:07:44;;;;;;;4.68;3.03;;;33.00;63.90;;;;;;4960169;28;20206;-77
2021/05/09 15:10:29;;;;;;;2.72;2.33;;;33.00;63.90;;;;;;4966590;28;20245;-77
2021/05/09 15:13:14;;;;;;;6.28;2.25;;;33.10;64.80;;;;;;4966214;28;20209;-77
2021/05/09 15:15:59;;;;;;;4.15;2.75;;;33.20;62.20;;;;;;4971664;28;20613;-78
2021/05/09 15:18:45;;;;;;;5.03;2.30;;;33.30;61.60;;;;;;4960225;28;20293;-79
2021/05/09 15:21:30;;;;;;;3.00;2.30;;;33.30;61.90;;;;;;4968188;28;20258;-78
2021/05/09 15:24:15;;;;;;;9.93;2.97;;;33.20;62.50;;;;;;4965119;28;20206;-78
2021/05/09 15:27:00;;;;;;;9.23;5.82;;;33.00;63.10;;;;;;4965794;28;20273;-78
2021/05/09 15:29:45;;;;;;;12.25;8.07;;;32.80;63.50;;;;;;4960423;28;20224;-78
2021/05/09 15:32:31;;;;;;;3.67;2.10;;;32.60;64.60;;;;;;4972669;28;20209;-78
2021/05/09 15:35:16;;;;;;;4.82;2.50;;;32.50;64.40;;;;;;4967477;28;20217;-78
2021/05/09 15:38:01;;;;;;;5.68;2.67;;;32.30;64.60;;;;;;4966518;28;20576;-78
2021/05/09 15:40:46;;;;;;;5.15;2.30;;;32.20;64.80;;;;;;4968704;28;20309;-78
2021/05/09 15:43:31;;;;;;;4.45;2.20;;;32.10;65.00;;;;;;4971083;28;20195;-78
2021/05/09 15:46:15;;;;;;;3.83;2.78;;;32.00;64.70;;;;;;4972357;28;20264;-78
2021/05/09 15:49:00;;;;;;;3.80;2.38;;;32.00;64.80;;;;;;4976703;28;20224;-78
2021/05/09 15:51:46;;;;;;;5.20;3.38;;;32.00;64.80;;;;;;4975943;28;20205;-78
2021/05/09 15:54:31;;;;;;;6.55;2.70;;;32.00;64.70;;;;;;4971699;28;20270;-78